Portada
METAR-TAF:

METAR-TAF

Aeroports :

Denpasar, Indonèsia

latitud: 08-44-53S, longitud: 115-10-03E, altitud: 4 m

Observació

L'informe es va fer fa 19 minuts, a les 13:00 UTC
Vent 5 kt del Est/Nord-Est
Temperatura 28°C
Humitat 84%
Pressió 1009 hPa
Visibilitat 10 km o més
Cel ennuvolat a una alçada de 1700 ft

METAR: WADD 241300Z 06005KT 9999 BKN017 28/25 Q1009 NOSIG

Hora: 20:19 (13:19 UTC)

Pronòstic

L'informe es va fer fa 2 hores i 19 minuts, a les 11:00 UTC
Pronòstic vàlid del 24 a les 12 UTC al 25 a les 12 UTC
Vent 5 kt amb direcció variable
Visibilitat 10 km o més
Núvols disperses a una alçada de 1700 ft
Temporalment
l' 24 a les 12 UTC al 24 a les 16 UTC
Visibilitat: 5000 m
Escasses núvols a una alçada de 1500 ft, Cumulonimbus.
Cel ennuvolat a una alçada de 1500 ft
tempesta, pluja
Evolucionant progressivament
l' 25 a les 00 UTC al 25 a les 02 UTC
Vent 10 kt del Oest

TAF: WADD 241100Z 2412/2512 VRB05KT 9999 SCT017 TEMPO 2412/2416 5000 TSRA FEW015CB BKN015 BECMG 2500/2502 27010KT

Observacions i pronòstics meteorològics de més de 4000 aeroports (METAR i TAF).

Les estacions disponibles són els punts grocs i vermells al mapa.

Posi el ratolí al punt desitjat per veure el nom de l'estació.

Feu clic per veure les observacions i els pronòstics meteorològics.

Per canviar el mapa: feu clic els botons verds amb una creu de color negre per apropar; al botó verd amb un guió per allunyar la imatge; o en les fletxes verdes per a mapes adjacents.


METAR-TAF: